createdAt,value
2018-12-22T00:02:22.699Z,11.30
2018-12-22T00:04:52.624Z,11.40
2018-12-22T00:07:21.689Z,11.60
2018-12-22T00:09:50.764Z,11.60
2018-12-22T00:12:19.883Z,11.60
2018-12-22T00:14:49.155Z,11.40
2018-12-22T00:17:18.506Z,11.30
2018-12-22T00:19:47.647Z,11.30
2018-12-22T00:22:16.749Z,11.20
2018-12-22T00:24:45.839Z,11.30
2018-12-22T00:27:15.066Z,11.10
2018-12-22T00:29:44.223Z,11.20
2018-12-22T00:32:13.359Z,11.20
2018-12-22T00:34:44.916Z,11.30
2018-12-22T00:37:14.372Z,10.90
2018-12-22T00:39:43.616Z,11.00
2018-12-22T00:42:13.144Z,11.30
2018-12-22T00:44:42.280Z,11.40
2018-12-22T00:47:11.305Z,11.30
2018-12-22T00:49:40.627Z,11.40
2018-12-22T00:52:09.811Z,11.80
2018-12-22T00:54:39.024Z,12.30
2018-12-22T00:57:08.263Z,11.90
2018-12-22T00:59:37.429Z,11.90
2018-12-22T01:02:06.609Z,11.80
2018-12-22T01:04:36.780Z,11.50
2018-12-22T01:07:05.808Z,11.40
2018-12-22T01:09:34.983Z,11.30
2018-12-22T01:12:04.431Z,11.10
2018-12-22T01:14:33.631Z,11.00
2018-12-22T01:17:02.922Z,11.50
2018-12-22T01:19:31.973Z,11.30
2018-12-22T01:22:01.662Z,12.10
2018-12-22T01:24:31.321Z,11.80
2018-12-22T01:27:00.640Z,11.40
2018-12-22T01:29:29.921Z,11.30
2018-12-22T01:31:59.238Z,11.90
2018-12-22T01:34:28.311Z,12.00
2018-12-22T01:36:57.370Z,11.70
2018-12-22T01:39:26.630Z,12.30
2018-12-22T01:41:55.661Z,12.20
2018-12-22T01:44:24.908Z,11.10
2018-12-22T01:46:54.124Z,11.60
2018-12-22T01:49:23.267Z,11.00
2018-12-22T01:51:52.452Z,11.30
2018-12-22T01:54:21.792Z,11.10
2018-12-22T01:56:50.948Z,11.60
2018-12-22T01:59:19.988Z,11.50
2018-12-22T02:01:49.140Z,11.80
2018-12-22T02:04:18.267Z,11.10
2018-12-22T02:06:47.332Z,10.80
2018-12-22T02:09:16.480Z,11.10
2018-12-22T02:11:45.524Z,11.40
2018-12-22T02:14:14.651Z,12.00
2018-12-22T02:16:43.732Z,12.20
2018-12-22T02:19:12.731Z,13.00
2018-12-22T02:21:41.911Z,13.30
2018-12-22T02:26:39.721Z,13.50
2018-12-22T02:29:08.925Z,13.00
2018-12-22T02:31:38.095Z,12.10
2018-12-22T02:34:07.330Z,12.10
2018-12-22T02:36:36.372Z,11.70
2018-12-22T02:39:07.257Z,11.20
2018-12-22T02:41:36.421Z,12.10
2018-12-22T02:44:05.528Z,12.10
2018-12-22T02:46:34.589Z,13.10
2018-12-22T02:49:03.736Z,13.40
2018-12-22T02:51:32.892Z,12.70
2018-12-22T02:54:01.997Z,12.50
2018-12-22T02:56:31.231Z,12.10
2018-12-22T02:59:05.875Z,12.50
2018-12-22T03:01:36.495Z,13.10
2018-12-22T03:04:05.631Z,13.40
2018-12-22T03:06:34.973Z,12.90
2018-12-22T03:09:05.195Z,13.00
2018-12-22T03:11:35.203Z,12.60
2018-12-22T03:14:04.424Z,12.60
2018-12-22T03:16:33.604Z,12.00
2018-12-22T03:19:02.808Z,11.90
2018-12-22T03:21:31.876Z,11.50
2018-12-22T03:24:00.948Z,12.20
2018-12-22T03:26:30.076Z,11.50
2018-12-22T03:28:59.119Z,10.80
2018-12-22T03:31:28.233Z,11.70
2018-12-22T03:33:57.211Z,11.70
2018-12-22T03:36:26.279Z,11.30
2018-12-22T03:38:55.464Z,11.30
2018-12-22T03:41:24.656Z,11.40
2018-12-22T03:43:53.800Z,10.90
2018-12-22T03:46:22.956Z,11.00
2018-12-22T03:48:52.096Z,11.20
2018-12-22T03:51:21.231Z,10.70
2018-12-22T03:53:51.129Z,10.80
2018-12-22T03:56:20.312Z,10.50
2018-12-22T03:58:49.444Z,10.50
2018-12-22T04:01:18.752Z,10.60
2018-12-22T04:03:47.943Z,10.40
2018-12-22T04:06:17.082Z,10.80
2018-12-22T04:08:47.187Z,10.50
2018-12-22T04:11:16.648Z,10.60
2018-12-22T04:13:45.738Z,10.50
2018-12-22T04:16:15.450Z,10.90
2018-12-22T04:18:44.881Z,10.20
2018-12-22T04:21:14.015Z,10.10
2018-12-22T04:23:43.049Z,10.40
2018-12-22T04:26:12.828Z,10.60
2018-12-22T04:28:41.961Z,10.30
2018-12-22T04:31:11.008Z,10.30
2018-12-22T04:33:40.164Z,10.20
2018-12-22T04:36:09.301Z,10.30
2018-12-22T04:38:38.531Z,10.30
2018-12-22T04:41:07.799Z,10.40
2018-12-22T04:43:37.556Z,10.40
2018-12-22T04:46:06.811Z,10.30
2018-12-22T04:48:35.823Z,10.40
2018-12-22T04:51:05.063Z,10.30
2018-12-22T04:53:34.707Z,10.30
2018-12-22T04:56:03.906Z,10.40
2018-12-22T04:58:33.031Z,10.40
2018-12-22T05:01:02.311Z,10.30
2018-12-22T05:03:31.315Z,10.50
2018-12-22T05:06:00.547Z,10.30
2018-12-22T05:08:29.717Z,10.20
2018-12-22T05:10:58.841Z,10.30
2018-12-22T05:13:27.915Z,10.40
2018-12-22T05:15:57.072Z,10.50
2018-12-22T05:18:26.163Z,10.30
2018-12-22T05:20:55.185Z,10.30
2018-12-22T05:23:24.355Z,10.40
2018-12-22T05:25:53.613Z,10.50
2018-12-22T05:28:22.639Z,10.50
2018-12-22T05:30:51.784Z,10.70
2018-12-22T05:33:21.527Z,10.70
2018-12-22T05:35:50.624Z,10.70
2018-12-22T05:38:19.752Z,10.70
2018-12-22T05:40:48.991Z,10.70
2018-12-22T05:43:18.035Z,10.70
2018-12-22T05:45:47.164Z,10.70
2018-12-22T05:48:16.336Z,10.70
2018-12-22T05:50:45.351Z,10.80
2018-12-22T05:53:14.541Z,10.70
2018-12-22T05:55:43.876Z,10.50
2018-12-22T05:58:13.113Z,10.50
2018-12-22T06:00:42.351Z,10.80
2018-12-22T06:03:12.104Z,10.70
2018-12-22T06:05:41.256Z,10.80
2018-12-22T06:08:10.314Z,10.90
2018-12-22T06:10:39.468Z,10.90
2018-12-22T06:13:08.624Z,10.80
2018-12-22T06:15:37.759Z,10.70
2018-12-22T06:18:06.795Z,10.50
2018-12-22T06:20:35.925Z,10.40
2018-12-22T06:23:05.094Z,10.30
2018-12-22T06:25:34.245Z,10.20
2018-12-22T06:28:03.544Z,10.40
2018-12-22T06:30:32.712Z,10.40
2018-12-22T06:33:02.050Z,10.40
2018-12-22T06:35:31.868Z,10.50
2018-12-22T06:38:01.048Z,10.70
2018-12-22T06:40:30.184Z,10.70
2018-12-22T06:42:59.228Z,10.30
2018-12-22T06:45:28.436Z,10.10
2018-12-22T06:47:57.625Z,10.00
2018-12-22T06:50:26.678Z,10.20
2018-12-22T06:52:56.036Z,10.30
2018-12-22T06:55:25.060Z,10.00
2018-12-22T06:57:54.305Z,10.10
2018-12-22T07:00:23.468Z,10.40
2018-12-22T07:02:52.485Z,10.00
2018-12-22T07:05:21.704Z,10.50
2018-12-22T07:07:51.008Z,10.70
2018-12-22T07:10:20.067Z,10.10
2018-12-22T07:12:49.227Z,9.90
2018-12-22T07:15:18.564Z,9.90
2018-12-22T07:17:47.718Z,10.10
2018-12-22T07:20:16.942Z,10.30
2018-12-22T07:22:46.071Z,10.20
2018-12-22T07:25:15.225Z,10.20
2018-12-22T07:27:44.567Z,10.00
2018-12-22T07:30:13.718Z,9.90
2018-12-22T07:32:42.863Z,10.20
2018-12-22T07:35:11.928Z,10.10
2018-12-22T07:37:41.068Z,10.00
2018-12-22T07:40:10.316Z,10.20
2018-12-22T07:42:39.504Z,10.00
2018-12-22T07:45:09.615Z,9.90
2018-12-22T07:47:38.770Z,10.50
2018-12-22T07:50:08.016Z,10.60
2018-12-22T07:52:37.155Z,10.60
2018-12-22T07:55:06.728Z,10.10
2018-12-22T07:57:35.872Z,10.60
2018-12-22T08:00:05.656Z,10.70
2018-12-22T08:02:34.883Z,11.00
2018-12-22T08:05:04.283Z,10.80
2018-12-22T08:07:33.316Z,11.00
2018-12-22T08:10:02.460Z,10.40
2018-12-22T08:12:31.682Z,10.30
2018-12-22T08:15:01.055Z,10.10
2018-12-22T08:17:30.577Z,10.30
2018-12-22T08:19:59.900Z,10.40
2018-12-22T08:22:29.021Z,10.40
2018-12-22T08:24:58.371Z,10.40
2018-12-22T08:27:27.511Z,10.40
2018-12-22T08:29:56.665Z,10.70
2018-12-22T08:32:25.864Z,10.30
2018-12-22T08:34:54.933Z,10.20
2018-12-22T08:37:24.155Z,10.30
2018-12-22T08:39:53.444Z,10.30
2018-12-22T08:42:22.605Z,10.30
2018-12-22T08:44:51.751Z,10.40
2018-12-22T08:47:20.888Z,10.50
2018-12-22T08:49:50.148Z,10.40
2018-12-22T08:52:19.300Z,10.30
2018-12-22T08:54:49.308Z,10.70
2018-12-22T08:57:19.145Z,10.80
2018-12-22T08:59:48.783Z,10.40
2018-12-22T09:02:24.508Z,10.40
2018-12-22T09:04:53.831Z,10.30
2018-12-22T09:07:22.924Z,10.60
2018-12-22T09:09:52.122Z,10.50
2018-12-22T09:12:21.113Z,10.60
2018-12-22T09:14:50.569Z,11.10
2018-12-22T09:17:19.719Z,11.00
2018-12-22T09:19:48.839Z,11.30
2018-12-22T09:22:18.109Z,11.40
2018-12-22T09:24:47.244Z,11.60
2018-12-22T09:27:16.514Z,10.90
2018-12-22T09:29:45.637Z,10.70
2018-12-22T09:32:14.789Z,11.00
2018-12-22T09:34:43.936Z,11.00
2018-12-22T09:37:13.079Z,10.60
2018-12-22T09:39:42.224Z,10.60
2018-12-22T09:42:11.211Z,10.90
2018-12-22T09:44:40.207Z,11.10
2018-12-22T09:47:09.236Z,10.90
2018-12-22T09:49:38.440Z,11.20
2018-12-22T09:52:07.623Z,11.50
2018-12-22T09:54:36.688Z,11.60
2018-12-22T09:57:05.885Z,11.20
2018-12-22T09:59:34.872Z,11.10
2018-12-22T10:02:04.035Z,10.90
2018-12-22T10:04:33.227Z,10.70
2018-12-22T10:07:02.647Z,10.80
2018-12-22T10:09:31.778Z,11.00
2018-12-22T10:12:00.808Z,11.40
2018-12-22T10:14:30.576Z,11.70
2018-12-22T10:16:59.843Z,11.80
2018-12-22T10:19:29.077Z,11.40
2018-12-22T10:21:58.124Z,11.10
2018-12-22T10:24:27.193Z,11.00
2018-12-22T10:26:56.600Z,11.10
2018-12-22T10:29:25.771Z,11.40
2018-12-22T10:31:54.904Z,11.40
2018-12-22T10:34:23.944Z,11.50
2018-12-22T10:36:52.948Z,11.30
2018-12-22T10:39:22.089Z,11.30
2018-12-22T10:41:51.212Z,11.30
2018-12-22T10:44:20.383Z,11.60
2018-12-22T10:46:49.428Z,11.70
2018-12-22T10:49:18.556Z,12.00
2018-12-22T10:51:47.875Z,11.90
2018-12-22T10:54:17.255Z,11.90
2018-12-22T10:56:46.540Z,12.20
2018-12-22T10:59:15.875Z,12.40
2018-12-22T11:01:44.908Z,12.10
2018-12-22T11:04:14.164Z,11.80
2018-12-22T11:06:43.204Z,12.00
2018-12-22T11:09:16.130Z,11.60
2018-12-22T11:11:45.288Z,11.60
2018-12-22T11:14:14.564Z,11.60
2018-12-22T11:16:43.579Z,11.60
2018-12-22T11:19:13.277Z,11.50
2018-12-22T11:21:42.387Z,11.60
2018-12-22T11:24:11.523Z,11.60
2018-12-22T11:26:40.559Z,11.90
2018-12-22T11:29:09.719Z,11.90
2018-12-22T11:31:38.754Z,11.70
2018-12-22T11:34:07.784Z,11.50
2018-12-22T11:36:36.971Z,11.40
2018-12-22T11:39:08.164Z,11.30
2018-12-22T11:41:38.087Z,11.40
2018-12-22T11:44:07.141Z,11.60
2018-12-22T11:46:37.303Z,11.70
2018-12-22T11:49:40.259Z,11.60
2018-12-22T11:52:09.316Z,11.50
2018-12-22T11:54:38.551Z,11.70
2018-12-22T11:57:07.592Z,11.70
2018-12-22T11:59:36.626Z,11.50
2018-12-22T12:02:10.025Z,11.60
2018-12-22T12:04:37.393Z,11.50
2018-12-22T12:07:06.499Z,11.60
2018-12-22T12:09:35.877Z,11.70
2018-12-22T12:12:05.281Z,11.70
2018-12-22T12:14:34.644Z,11.80
2018-12-22T12:18:11.159Z,12.00
2018-12-22T12:20:40.360Z,11.90
2018-12-22T12:23:10.677Z,11.80
2018-12-22T12:25:40.104Z,11.70
2018-12-22T12:28:10.566Z,11.60
2018-12-22T12:30:39.710Z,11.80
2018-12-22T12:33:08.920Z,11.80
2018-12-22T12:35:38.124Z,11.90
2018-12-22T12:38:07.257Z,11.80
2018-12-22T12:40:36.281Z,11.50
2018-12-22T12:43:05.480Z,11.40
2018-12-22T12:45:34.803Z,11.50
2018-12-22T12:48:03.968Z,11.60
2018-12-22T12:50:33.200Z,11.50
2018-12-22T12:53:09.595Z,11.70
2018-12-22T12:55:33.684Z,11.80
2018-12-22T12:58:03.626Z,11.70
2018-12-22T13:00:32.940Z,11.70
2018-12-22T13:03:02.140Z,11.50
2018-12-22T13:05:31.965Z,11.50
2018-12-22T13:08:01.154Z,11.80
2018-12-22T13:10:30.826Z,11.90
2018-12-22T13:13:41.463Z,11.70
2018-12-22T13:16:11.152Z,11.90
2018-12-22T13:18:40.292Z,11.90
2018-12-22T13:21:10.104Z,11.70
2018-12-22T13:23:39.568Z,11.70
2018-12-22T13:26:08.621Z,11.50
2018-12-22T13:28:37.959Z,11.80
2018-12-22T13:31:06.996Z,12.20
2018-12-22T13:33:36.247Z,11.20
2018-12-22T13:36:05.400Z,12.10
2018-12-22T13:38:37.500Z,12.50
2018-12-22T13:41:07.337Z,11.90
2018-12-22T13:43:36.525Z,12.30
2018-12-22T13:46:05.827Z,12.90
2018-12-22T13:51:04.689Z,11.20
2018-12-22T13:53:34.029Z,10.10
2018-12-22T13:56:03.059Z,9.90
2018-12-22T13:58:32.315Z,9.80
2018-12-22T14:06:02.012Z,9.70
2018-12-22T14:08:31.012Z,9.90
2018-12-22T14:10:59.979Z,9.90
2018-12-22T14:13:29.120Z,10.70
2018-12-22T14:16:03.644Z,10.50
2018-12-22T14:18:41.888Z,10.90
2018-12-22T14:21:11.128Z,10.20
2018-12-22T14:24:05.835Z,9.90
2018-12-22T14:26:34.902Z,10.30
2018-12-22T14:29:04.140Z,10.20
2018-12-22T14:31:33.312Z,10.20
2018-12-22T14:34:06.956Z,9.90
2018-12-22T14:36:36.104Z,10.80
2018-12-22T14:39:06.852Z,11.00
2018-12-22T14:41:36.034Z,11.50
2018-12-22T14:44:05.165Z,11.30
2018-12-22T14:46:34.484Z,11.10
2018-12-22T14:49:04.380Z,11.80
2018-12-22T14:51:33.908Z,12.00
2018-12-22T14:54:03.488Z,12.70
2018-12-22T14:56:39.855Z,11.30
2018-12-22T14:59:11.420Z,11.70
2018-12-22T15:01:40.579Z,12.50
2018-12-22T15:04:10.109Z,12.20
2018-12-22T15:06:39.368Z,10.80
2018-12-22T15:09:13.286Z,10.70
2018-12-22T15:11:40.016Z,10.60
2018-12-22T15:14:09.151Z,11.10
2018-12-22T15:16:38.323Z,11.40
2018-12-22T15:19:07.342Z,10.60
2018-12-22T15:21:36.567Z,10.40
2018-12-22T15:24:06.348Z,10.40
2018-12-22T15:26:35.416Z,10.70
2018-12-22T15:29:04.428Z,11.50
2018-12-22T15:31:33.796Z,11.00
2018-12-22T15:34:03.052Z,11.40
2018-12-22T15:36:32.304Z,10.50
2018-12-22T15:39:01.435Z,10.60
2018-12-22T15:41:30.331Z,10.60
2018-12-22T15:43:59.500Z,10.90
2018-12-22T15:46:28.633Z,11.10
2018-12-22T15:48:57.823Z,11.40
2018-12-22T15:51:27.026Z,11.30
2018-12-22T15:53:56.172Z,11.00
2018-12-22T15:56:25.295Z,11.00
2018-12-22T15:58:54.515Z,11.50
2018-12-22T16:01:23.695Z,10.90
2018-12-22T16:03:52.926Z,10.40
2018-12-22T16:06:22.103Z,10.50
2018-12-22T16:08:51.504Z,10.30
2018-12-22T16:11:20.739Z,10.70
2018-12-22T16:13:50.543Z,10.80
2018-12-22T16:16:19.815Z,11.50
2018-12-22T16:18:49.197Z,10.90
2018-12-22T16:21:19.016Z,10.70
2018-12-22T16:23:48.184Z,10.80
2018-12-22T16:26:17.182Z,10.70
2018-12-22T16:29:08.384Z,11.20
2018-12-22T16:31:38.232Z,10.80
2018-12-22T16:34:07.316Z,11.80
2018-12-22T16:36:36.639Z,11.90
2018-12-22T16:39:07.925Z,11.30
2018-12-22T16:41:37.061Z,10.80
2018-12-22T16:44:09.046Z,10.50
2018-12-22T16:46:38.108Z,11.00
2018-12-22T16:49:07.765Z,11.10
2018-12-22T16:51:36.935Z,11.10
2018-12-22T16:54:06.082Z,10.80
2018-12-22T16:56:35.726Z,11.10
2018-12-22T16:59:05.832Z,10.80
2018-12-22T17:01:41.674Z,10.50
2018-12-22T17:04:10.767Z,10.70
2018-12-22T17:06:41.404Z,11.10
2018-12-22T17:09:11.125Z,11.40
2018-12-22T17:11:40.437Z,11.10
2018-12-22T17:14:09.500Z,11.00
2018-12-22T17:16:39.012Z,10.90
2018-12-22T17:19:08.004Z,11.30
2018-12-22T17:21:47.446Z,10.80
2018-12-22T17:24:21.708Z,10.70
2018-12-22T17:26:50.892Z,10.40
2018-12-22T17:29:20.056Z,10.20
2018-12-22T17:31:49.398Z,10.30
2018-12-22T17:34:18.491Z,10.20
2018-12-22T17:36:47.868Z,10.50
2018-12-22T17:39:17.680Z,10.60
2018-12-22T17:41:47.163Z,10.60
2018-12-22T17:44:16.433Z,10.80
2018-12-22T17:46:45.712Z,10.90
2018-12-22T17:49:14.916Z,10.30
2018-12-22T17:51:44.164Z,10.20
2018-12-22T17:54:13.403Z,10.20
2018-12-22T17:56:42.877Z,10.40
2018-12-22T17:59:11.999Z,10.50
2018-12-22T18:01:41.044Z,10.50
2018-12-22T18:04:10.105Z,10.50
2018-12-22T18:06:39.241Z,10.40
2018-12-22T18:09:08.972Z,11.10
2018-12-22T18:11:38.131Z,10.70
2018-12-22T18:14:07.279Z,10.50
2018-12-22T18:16:36.508Z,10.20
2018-12-22T18:19:05.884Z,10.20
2018-12-22T18:21:35.028Z,10.50
2018-12-22T18:24:04.302Z,10.30
2018-12-22T18:26:33.564Z,10.30
2018-12-22T18:29:02.902Z,10.60
2018-12-22T18:31:32.632Z,10.30
2018-12-22T18:34:01.784Z,10.50
2018-12-22T18:36:30.852Z,10.60
2018-12-22T18:39:00.059Z,10.40
2018-12-22T18:41:29.076Z,10.70
2018-12-22T18:43:58.203Z,11.00
2018-12-22T18:46:27.359Z,10.40
2018-12-22T18:48:56.608Z,10.20
2018-12-22T18:51:25.624Z,10.40
2018-12-22T18:53:54.991Z,10.80
2018-12-22T18:56:24.127Z,10.80
2018-12-22T18:58:53.592Z,11.10
2018-12-22T19:01:22.847Z,10.90
2018-12-22T19:03:52.104Z,10.40
2018-12-22T19:06:21.228Z,10.60
2018-12-22T19:08:51.479Z,11.00
2018-12-22T19:11:22.029Z,10.60
2018-12-22T19:13:51.139Z,10.40
2018-12-22T19:16:20.365Z,10.20
2018-12-22T19:18:49.540Z,10.10
2018-12-22T19:21:18.659Z,11.10
2018-12-22T19:23:47.828Z,10.40
2018-12-22T19:26:16.974Z,10.10
2018-12-22T19:31:15.554Z,9.80
2018-12-22T19:33:53.265Z,9.90
2018-12-22T19:36:16.115Z,9.60
2018-12-22T19:38:45.215Z,10.10
2018-12-22T19:41:14.417Z,10.00
2018-12-22T19:43:43.548Z,10.40
2018-12-22T19:46:12.805Z,10.40
2018-12-22T19:48:42.047Z,10.50
2018-12-22T19:51:11.177Z,11.10
2018-12-22T19:53:40.332Z,11.90
2018-12-22T19:56:09.568Z,12.20
2018-12-22T19:58:38.623Z,12.80
2018-12-22T20:01:07.640Z,12.70
2018-12-22T20:03:36.630Z,11.90
2018-12-22T20:06:05.811Z,12.20
2018-12-22T20:08:35.067Z,10.90
2018-12-22T20:11:04.317Z,10.30
2018-12-22T20:13:33.339Z,11.50
2018-12-22T20:16:08.822Z,11.20
2018-12-22T20:18:33.880Z,10.20
2018-12-22T20:21:02.980Z,10.50
2018-12-22T20:23:32.195Z,10.90
2018-12-22T20:26:01.396Z,10.70
2018-12-22T20:28:30.481Z,10.90
2018-12-22T20:30:59.692Z,10.10
2018-12-22T20:33:28.762Z,10.00
2018-12-22T20:35:58.287Z,10.50
2018-12-22T20:38:27.584Z,10.50
2018-12-22T20:40:56.732Z,11.10
2018-12-22T20:43:25.868Z,10.60
2018-12-22T20:45:55.054Z,10.50
2018-12-22T20:48:24.662Z,10.70
2018-12-22T20:50:53.736Z,10.20
2018-12-22T20:53:23.761Z,10.30
2018-12-22T20:55:53.092Z,10.80
2018-12-22T20:58:22.181Z,11.10
2018-12-22T21:00:51.515Z,11.80
2018-12-22T21:03:24.064Z,11.50
2018-12-22T21:06:00.866Z,12.00
2018-12-22T21:08:30.022Z,11.50
2018-12-22T21:10:59.055Z,11.50
2018-12-22T21:13:28.217Z,11.90
2018-12-22T21:15:57.640Z,11.00
2018-12-22T21:18:27.226Z,10.50
2018-12-22T21:20:56.824Z,10.30
2018-12-22T21:23:26.484Z,10.00
2018-12-22T21:25:56.504Z,10.50
2018-12-22T21:28:25.764Z,10.20
2018-12-22T21:30:54.927Z,10.20
2018-12-22T21:33:24.903Z,10.40
2018-12-22T21:35:53.969Z,10.30
2018-12-22T21:38:23.071Z,10.60
2018-12-22T21:43:22.692Z,9.90
2018-12-22T21:45:51.758Z,10.00
2018-12-22T21:48:21.007Z,10.40
2018-12-22T21:50:50.174Z,10.20
2018-12-22T21:53:19.211Z,9.90
2018-12-22T21:55:48.458Z,10.30
2018-12-22T21:58:17.672Z,10.50
2018-12-22T22:00:46.966Z,10.10
2018-12-22T22:03:16.103Z,9.80
2018-12-22T22:05:45.252Z,9.50
2018-12-22T22:08:14.404Z,9.80
2018-12-22T22:10:43.587Z,9.80
2018-12-22T22:13:13.039Z,9.90
2018-12-22T22:15:42.232Z,9.80
2018-12-22T22:18:12.308Z,10.00
2018-12-22T22:20:41.456Z,9.60
2018-12-22T22:23:18.653Z,9.90
2018-12-22T22:25:42.485Z,10.30
2018-12-22T22:28:11.724Z,10.70
2018-12-22T22:30:41.008Z,10.70
2018-12-22T22:33:10.180Z,11.40
2018-12-22T22:35:39.331Z,10.40
2018-12-22T22:38:08.355Z,9.90
2018-12-22T22:40:37.444Z,10.30
2018-12-22T22:43:06.580Z,10.90
2018-12-22T22:45:35.848Z,10.70
2018-12-22T22:48:04.979Z,10.90
2018-12-22T22:50:34.032Z,11.70
2018-12-22T22:53:03.087Z,11.00
2018-12-22T22:55:32.536Z,10.80
2018-12-22T22:58:01.683Z,10.00
2018-12-22T23:00:34.660Z,10.00
2018-12-22T23:03:03.785Z,9.70
2018-12-22T23:05:32.959Z,10.10
2018-12-22T23:08:02.340Z,10.60
2018-12-22T23:10:31.500Z,10.70
2018-12-22T23:13:00.543Z,11.10
2018-12-22T23:15:29.804Z,11.10
2018-12-22T23:17:58.932Z,10.70
2018-12-22T23:20:27.997Z,11.20
2018-12-22T23:22:57.016Z,10.10
2018-12-22T23:25:26.336Z,10.50
2018-12-22T23:27:55.612Z,10.80
2018-12-22T23:30:24.873Z,10.40
2018-12-22T23:32:53.907Z,11.40
2018-12-22T23:35:23.855Z,11.80
2018-12-22T23:37:53.027Z,11.40
2018-12-22T23:40:22.194Z,11.60
2018-12-22T23:42:51.212Z,11.90
2018-12-22T23:45:20.572Z,12.00
2018-12-22T23:47:49.634Z,11.10
2018-12-22T23:50:18.704Z,10.30
2018-12-22T23:52:47.863Z,11.50
2018-12-22T23:55:16.985Z,12.20
2018-12-22T23:57:46.116Z,12.90
